Aérodrome :







RETROUVEZ-NOUS SUR...

 
LOGIN :

S'inscrire | Disclaimer

   EN    FR    IT 

 









Légende :    VFR   VFR Marginal   IFR   IFR Intensif   IFR Très Intensif
Visi : 
Plafond : 
>= 8 km
>= 3000ft
5 à 8 km
1000 à 3000 ft
1500m à 5 km
500 à 1000 ft
800 à 1500m
200 à 500 ft
< 800m
< 200 ft
Symboles :   Orages  Brouillard  Fortes neiges  Fortes précipitations  Vent > 20 kt






- Altitude de l'aérodrome : 21 ft
- Code IATA : YVM


CYVM - Qikiqtarjuac

DERNIER METAR :
  • 171200Z 00000KT 15SM FEW015 FEW120 SCT250 M29/M32 A2945 RMK SC1AC1CC4 SC TR AC TR SLP974

METARs EXPIRÉS :
  • 171100Z 00000KT 15SM BKN250 M28/M31 A2944 RMK CC5 FROIN S00 AFT 18UTC/24 SNW COV/MEDIUM PACK SLP970
  • 171000Z AUTO 00000KT 9SM CLR M29/M32 A2942 RMK SLP966

TAF TAF CYVM
Valide du 17 à 07h jusqu'au 17 à 19h UTC


170638Z 1707/1719 VRB03KT P6SM SKC
FM171500 VRB03KT P6SM -SN BKN030 RMK FCST BASED ON AUTO OBS. NXT FCST BY 171300Z



MET'MAP, la Météo Aéronautique d'un coup d'oeil ! - Copyright ORBIFLY Décembre 2007 - Disclaimer

ORBIFLY MET'MAP TEAM :

Programmation & Développement : Alexandra Zaïnal
Sur une idée originale de : Baudouin d'Aumeries
Assistance à la programmation : Marc-Olivier Méhu
Soutien technique & logistique : Manuel Goepfert

Contact : metmap@orbifly.com




SOURCES & CREDITS :

   NOAA